Time;durP1;ratioP1;P1;durP2;ratioP2;P2;SDS_P1;SDS_P2;PMS_P1;PMS_P2;Temp;Humidity;BMP_temperature;BMP_pressure;BME280_temperature;BME280_humidity;BME280_pressure;Samples;Min_cycle;Max_cycle;Signal;HPM_P1;HPM_P2
2023/06/25 00:01:46;;;;;;;10.18;8.35;;;19.90;99.90;;;;;;5008373;28;20033;-57
2023/06/25 00:04:12;;;;;;;14.93;9.52;;;19.90;99.90;;;;;;5012047;28;20106;-57
2023/06/25 00:06:37;;;;;;;12.20;10.90;;;19.80;99.90;;;;;;5044449;28;20025;-57
2023/06/25 00:09:03;;;;;;;14.48;10.40;;;19.70;99.90;;;;;;5021280;28;20540;-56
2023/06/25 00:11:29;;;;;;;14.27;11.35;;;19.70;99.90;;;;;;4994543;28;20045;-56
2023/06/25 00:13:55;;;;;;;13.38;10.57;;;19.70;99.90;;;;;;5029701;28;20195;-55
2023/06/25 00:16:20;;;;;;;12.32;9.88;;;19.60;99.90;;;;;;5046179;28;20028;-56
2023/06/25 00:18:47;;;;;;;13.15;10.65;;;19.60;99.90;;;;;;4991039;28;20511;-56
2023/06/25 00:21:13;;;;;;;12.75;10.43;;;19.60;99.90;;;;;;5026882;28;20041;-57
2023/06/25 00:23:39;;;;;;;11.90;8.98;;;19.50;99.90;;;;;;5043414;28;20036;-56
2023/06/25 00:26:05;;;;;;;13.13;10.63;;;19.50;99.90;;;;;;5031973;28;20388;-55
2023/06/25 00:28:30;;;;;;;13.25;10.48;;;19.40;99.90;;;;;;5025109;28;20076;-54
2023/06/25 00:30:56;;;;;;;17.65;11.70;;;19.40;99.90;;;;;;5014785;28;20304;-53
2023/06/25 00:33:22;;;;;;;14.50;11.18;;;19.40;99.90;;;;;;5027075;28;20041;-56
2023/06/25 00:35:50;;;;;;;17.30;11.65;;;19.40;99.90;;;;;;5046749;28;20293;-56
2023/06/25 00:38:17;;;;;;;12.10;9.23;;;19.40;99.90;;;;;;5034364;28;20041;-57
2023/06/25 00:40:42;;;;;;;19.63;11.23;;;19.30;99.90;;;;;;5029738;28;20106;-58
2023/06/25 00:43:08;;;;;;;13.02;11.40;;;19.40;99.90;;;;;;4981027;28;20091;-55
2023/06/25 00:45:34;;;;;;;12.00;10.27;;;19.40;99.90;;;;;;5031660;28;20040;-56
2023/06/25 00:48:01;;;;;;;11.30;10.13;;;19.40;99.90;;;;;;5023142;28;20041;-56
2023/06/25 00:50:27;;;;;;;13.90;11.52;;;19.40;99.90;;;;;;5012196;28;20045;-54
2023/06/25 00:52:54;;;;;;;17.08;11.30;;;19.30;99.90;;;;;;5009188;28;20557;-56
2023/06/25 00:55:20;;;;;;;14.13;9.95;;;19.30;99.90;;;;;;5026410;28;20046;-56
2023/06/25 00:57:46;;;;;;;11.70;9.15;;;19.30;99.90;;;;;;5034698;28;20190;-56
2023/06/25 01:00:14;;;;;;;13.80;12.30;;;19.30;99.90;;;;;;5011112;28;20091;-56
2023/06/25 01:02:46;;;;;;;12.93;11.38;;;19.30;99.90;;;;;;5025599;28;20041;-57
2023/06/25 01:05:29;;;;;;;15.75;12.70;;;19.30;99.90;;;;;;5013066;28;20488;-56
2023/06/25 01:07:58;;;;;;;14.35;10.80;;;19.30;99.90;;;;;;5012290;28;20038;-55
2023/06/25 01:10:24;;;;;;;12.65;10.20;;;19.20;99.90;;;;;;5006798;28;20049;-55
2023/06/25 01:12:50;;;;;;;15.48;10.63;;;19.30;99.90;;;;;;5033518;28;20539;-56
2023/06/25 01:15:16;;;;;;;14.80;12.95;;;19.30;99.90;;;;;;5027146;28;20045;-56
2023/06/25 01:17:42;;;;;;;14.77;12.23;;;19.30;99.90;;;;;;4996950;28;20053;-56
2023/06/25 01:20:12;;;;;;;15.65;10.85;;;19.20;99.90;;;;;;5027458;28;20068;-56
2023/06/25 01:22:41;;;;;;;14.27;12.60;;;19.20;99.90;;;;;;5032291;28;20135;-56
2023/06/25 01:25:07;;;;;;;11.88;10.07;;;19.20;99.90;;;;;;5026820;28;20049;-56
2023/06/25 01:27:34;;;;;;;14.25;11.75;;;19.20;99.90;;;;;;5002158;28;20124;-55
2023/06/25 01:30:01;;;;;;;13.60;11.65;;;19.10;99.90;;;;;;5043604;28;20044;-54
2023/06/25 01:32:26;;;;;;;17.00;11.40;;;19.10;99.90;;;;;;5009156;28;20053;-56
2023/06/25 01:34:52;;;;;;;16.40;13.75;;;19.10;99.90;;;;;;4991475;28;20040;-56
2023/06/25 01:37:18;;;;;;;15.63;13.65;;;19.00;99.90;;;;;;5031663;28;20037;-55
2023/06/25 01:39:48;;;;;;;16.60;13.38;;;19.00;99.90;;;;;;5031372;28;20045;-57
2023/06/25 01:42:14;;;;;;;17.33;13.52;;;18.90;99.90;;;;;;5031038;28;20333;-56
2023/06/25 01:44:40;;;;;;;17.52;13.95;;;18.90;99.90;;;;;;5047080;28;20099;-56
2023/06/25 01:47:06;;;;;;;13.50;11.27;;;18.90;99.90;;;;;;5041373;28;20033;-56
2023/06/25 01:49:31;;;;;;;15.65;11.80;;;18.90;99.90;;;;;;5012812;28;20044;-57
2023/06/25 01:51:57;;;;;;;19.70;15.95;;;18.90;99.90;;;;;;5026156;28;20493;-56
2023/06/25 01:54:39;;;;;;;17.40;12.52;;;18.90;99.90;;;;;;5012105;28;20114;-55
2023/06/25 01:57:05;;;;;;;16.85;14.75;;;18.80;99.90;;;;;;5017700;28;20503;-53
2023/06/25 01:59:34;;;;;;;17.55;14.88;;;18.70;99.90;;;;;;5035495;28;20487;-56
2023/06/25 02:02:03;;;;;;;17.58;14.45;;;18.70;99.90;;;;;;5029838;28;20051;-56
2023/06/25 02:04:29;;;;;;;17.20;14.30;;;18.70;99.90;;;;;;5029019;28;20045;-56
2023/06/25 02:06:55;;;;;;;17.40;13.60;;;18.60;99.90;;;;;;5023272;28;20388;-56
2023/06/25 02:09:21;;;;;;;17.75;15.20;;;18.60;99.90;;;;;;5032888;28;20037;-56
2023/06/25 02:11:47;;;;;;;22.48;16.05;;;18.60;99.90;;;;;;5011571;28;20486;-55
2023/06/25 02:14:12;;;;;;;17.23;15.02;;;18.60;99.90;;;;;;5033296;28;20044;-55
2023/06/25 02:16:38;;;;;;;17.65;14.23;;;18.60;99.90;;;;;;5047378;28;20504;-54
2023/06/25 02:19:04;;;;;;;19.20;14.50;;;18.60;99.90;;;;;;5046625;28;20044;-54
2023/06/25 02:21:30;;;;;;;18.77;12.82;;;18.60;99.90;;;;;;5011209;28;20040;-56
2023/06/25 02:23:55;;;;;;;16.70;13.98;;;18.60;99.90;;;;;;5032025;28;20033;-56
2023/06/25 02:26:21;;;;;;;15.90;12.85;;;18.60;99.90;;;;;;5025549;28;20491;-56
2023/06/25 02:28:47;;;;;;;15.75;13.63;;;18.60;99.90;;;;;;5012624;28;20405;-56
2023/06/25 02:31:13;;;;;;;17.67;13.13;;;18.60;99.90;;;;;;5028359;28;20036;-55
2023/06/25 02:33:38;;;;;;;18.23;15.68;;;18.60;99.90;;;;;;5024155;28;20073;-56
2023/06/25 02:36:04;;;;;;;17.05;14.10;;;18.50;99.90;;;;;;5030280;28;20128;-54
2023/06/25 02:38:30;;;;;;;16.05;13.48;;;18.50;99.90;;;;;;5022913;28;20476;-56
2023/06/25 02:40:55;;;;;;;14.02;11.90;;;18.40;99.90;;;;;;5031760;28;20115;-56
2023/06/25 02:43:21;;;;;;;17.92;14.95;;;18.40;99.90;;;;;;5011832;28;20044;-56
2023/06/25 02:45:47;;;;;;;16.90;14.05;;;18.30;99.90;;;;;;5028778;28;20033;-56
2023/06/25 02:48:12;;;;;;;16.65;13.38;;;18.30;99.90;;;;;;5013145;28;20076;-55
2023/06/25 02:50:38;;;;;;;19.23;15.57;;;18.30;99.90;;;;;;5009981;28;20332;-55
2023/06/25 02:53:04;;;;;;;15.23;13.13;;;18.30;99.90;;;;;;5042301;28;20632;-56
2023/06/25 02:55:30;;;;;;;17.50;13.95;;;18.30;99.90;;;;;;5021641;28;20985;-56
2023/06/25 02:57:56;;;;;;;18.58;13.82;;;18.20;99.90;;;;;;5030132;28;20120;-53
2023/06/25 03:00:22;;;;;;;17.80;14.25;;;18.20;99.90;;;;;;5025631;28;20056;-53
2023/06/25 03:02:48;;;;;;;20.90;15.07;;;18.20;99.90;;;;;;5017623;28;20103;-54
2023/06/25 03:05:14;;;;;;;16.33;13.75;;;18.20;99.90;;;;;;5033197;28;20052;-55
2023/06/25 03:07:57;;;;;;;20.25;14.77;;;18.20;99.90;;;;;;5015796;28;20442;-55
2023/06/25 03:10:25;;;;;;;19.45;15.63;;;18.20;99.90;;;;;;5023387;28;20060;-56
2023/06/25 03:12:51;;;;;;;19.02;15.13;;;18.10;99.90;;;;;;5021065;28;20045;-54
2023/06/25 03:15:19;;;;;;;18.90;14.60;;;18.10;99.90;;;;;;5027626;28;20043;-55
2023/06/25 03:17:46;;;;;;;18.90;15.45;;;18.10;99.90;;;;;;5032766;28;20048;-55
2023/06/25 03:20:13;;;;;;;22.02;15.95;;;18.10;99.90;;;;;;5044534;28;20041;-53
2023/06/25 03:22:39;;;;;;;16.95;12.75;;;18.10;99.90;;;;;;5029489;28;20094;-56
2023/06/25 03:25:05;;;;;;;20.65;16.15;;;18.10;99.90;;;;;;5021518;28;20064;-56
2023/06/25 03:27:36;;;;;;;21.48;17.23;;;18.20;99.90;;;;;;5022998;28;20068;-57
2023/06/25 03:30:03;;;;;;;19.55;15.82;;;18.20;99.90;;;;;;5024891;28;20052;-56
2023/06/25 03:32:28;;;;;;;21.23;16.63;;;18.10;99.90;;;;;;5014889;28;20048;-56
2023/06/25 03:34:55;;;;;;;19.13;15.00;;;18.10;99.90;;;;;;5006235;28;20033;-56
2023/06/25 03:37:21;;;;;;;18.02;15.02;;;18.10;99.90;;;;;;5004391;28;20045;-57
2023/06/25 03:39:51;;;;;;;21.27;16.88;;;18.10;99.90;;;;;;5003122;28;20116;-56
2023/06/25 03:42:16;;;;;;;18.05;15.75;;;18.10;99.90;;;;;;5008035;28;20045;-55
2023/06/25 03:44:52;;;;;;;21.02;16.13;;;18.10;99.90;;;;;;5026894;28;20051;-56
2023/06/25 03:47:19;;;;;;;20.80;15.25;;;18.00;99.90;;;;;;5020639;28;20057;-56
2023/06/25 03:49:45;;;;;;;20.50;16.35;;;17.90;99.90;;;;;;5026316;28;20041;-56
2023/06/25 03:52:11;;;;;;;17.45;14.70;;;17.90;99.90;;;;;;5031990;28;20133;-56
2023/06/25 03:54:37;;;;;;;16.67;14.23;;;17.90;99.90;;;;;;5024061;28;20124;-56
2023/06/25 03:57:03;;;;;;;19.30;15.63;;;18.00;99.90;;;;;;5014210;28;20048;-56
2023/06/25 03:59:29;;;;;;;20.73;15.05;;;18.00;99.90;;;;;;5031421;28;20037;-56
2023/06/25 04:01:55;;;;;;;16.55;14.15;;;18.00;99.90;;;;;;5049888;28;20040;-55
2023/06/25 04:04:21;;;;;;;15.82;13.93;;;18.00;99.90;;;;;;5014264;28;20048;-55
2023/06/25 04:06:46;;;;;;;17.95;14.65;;;18.00;99.90;;;;;;5010380;28;20041;-56
2023/06/25 04:09:12;;;;;;;22.77;15.38;;;18.00;99.90;;;;;;5026599;28;20049;-57
2023/06/25 04:11:38;;;;;;;15.77;12.77;;;18.10;99.90;;;;;;5010910;28;20107;-55
2023/06/25 04:14:03;;;;;;;18.58;13.70;;;18.10;99.90;;;;;;5050099;28;20542;-56
2023/06/25 04:16:29;;;;;;;18.52;14.10;;;18.10;99.90;;;;;;5030457;28;20041;-57
2023/06/25 04:18:55;;;;;;;16.33;13.50;;;18.20;99.90;;;;;;5046794;28;20479;-56
2023/06/25 04:21:20;;;;;;;16.65;12.57;;;18.20;99.90;;;;;;5011280;28;20466;-57
2023/06/25 04:23:46;;;;;;;19.08;14.55;;;18.20;99.90;;;;;;5017463;28;20033;-56
2023/06/25 04:26:12;;;;;;;19.10;14.90;;;18.30;99.90;;;;;;5049972;28;20468;-57
2023/06/25 04:28:38;;;;;;;21.27;14.43;;;18.30;99.90;;;;;;5013653;28;20136;-57
2023/06/25 04:31:04;;;;;;;16.02;13.93;;;18.40;99.90;;;;;;5010075;28;20044;-57
2023/06/25 04:33:29;;;;;;;20.15;13.57;;;18.40;99.90;;;;;;5007300;28;20053;-56
2023/06/25 04:35:55;;;;;;;15.90;12.10;;;18.40;99.90;;;;;;5040991;28;20037;-56
2023/06/25 04:38:21;;;;;;;16.25;13.63;;;18.50;99.90;;;;;;5009434;28;20040;-56
2023/06/25 04:40:47;;;;;;;18.40;12.82;;;18.50;99.90;;;;;;5031160;28;20057;-56
2023/06/25 04:43:12;;;;;;;16.88;13.80;;;18.50;99.90;;;;;;5011575;28;20049;-56
2023/06/25 04:45:38;;;;;;;18.77;15.07;;;18.60;99.90;;;;;;5015008;28;20044;-56
2023/06/25 04:48:04;;;;;;;18.45;13.95;;;18.60;99.90;;;;;;5030294;28;20557;-55
2023/06/25 04:50:30;;;;;;;17.63;13.77;;;18.60;99.90;;;;;;5052765;28;20087;-56
2023/06/25 04:52:57;;;;;;;17.27;13.50;;;18.60;99.90;;;;;;5024333;28;20804;-56
2023/06/25 04:55:22;;;;;;;16.13;12.85;;;18.60;99.90;;;;;;5054115;28;20049;-56
2023/06/25 04:57:48;;;;;;;16.98;13.23;;;18.70;99.90;;;;;;5027392;28;20164;-56
2023/06/25 05:00:14;;;;;;;17.02;13.77;;;18.70;99.90;;;;;;5014858;28;20056;-56
2023/06/25 05:02:40;;;;;;;18.17;15.20;;;18.70;99.90;;;;;;5012345;28;20041;-56
2023/06/25 05:05:06;;;;;;;19.50;14.35;;;18.80;99.90;;;;;;5034958;28;20047;-55
2023/06/25 05:07:31;;;;;;;16.80;13.43;;;18.80;99.90;;;;;;5026566;28;20128;-57
2023/06/25 05:09:57;;;;;;;18.73;14.32;;;18.80;99.90;;;;;;5010697;28;20068;-56
2023/06/25 05:12:23;;;;;;;17.65;13.75;;;18.90;99.90;;;;;;5024231;28;20045;-56
2023/06/25 05:14:49;;;;;;;20.55;15.00;;;18.90;99.90;;;;;;5028194;28;20044;-56
2023/06/25 05:17:14;;;;;;;16.02;13.40;;;18.90;99.90;;;;;;5033008;28;20419;-56
2023/06/25 05:19:40;;;;;;;14.70;13.15;;;19.00;99.90;;;;;;5012244;28;20053;-57
2023/06/25 05:22:06;;;;;;;16.77;13.23;;;19.10;99.90;;;;;;5011789;28;20041;-57
2023/06/25 05:24:32;;;;;;;17.38;13.43;;;19.10;99.90;;;;;;5026294;28;20055;-56
2023/06/25 05:26:58;;;;;;;16.80;13.43;;;19.20;99.90;;;;;;5011845;28;20045;-57
2023/06/25 05:29:23;;;;;;;15.43;11.82;;;19.30;99.90;;;;;;5026111;28;20041;-57
2023/06/25 05:31:49;;;;;;;15.48;12.50;;;19.40;99.90;;;;;;5028112;28;20048;-57
2023/06/25 05:34:15;;;;;;;14.13;11.88;;;19.50;99.90;;;;;;5010737;28;20032;-57
2023/06/25 05:36:41;;;;;;;14.40;11.13;;;19.60;99.90;;;;;;5019786;28;20452;-56
2023/06/25 05:39:06;;;;;;;15.60;12.02;;;19.60;99.90;;;;;;5029061;28;20044;-58
2023/06/25 05:41:36;;;;;;;14.13;11.48;;;19.70;99.90;;;;;;5024184;28;20083;-57
2023/06/25 05:44:01;;;;;;;13.82;10.93;;;19.80;99.90;;;;;;5019718;28;20132;-56
2023/06/25 05:46:27;;;;;;;15.40;12.25;;;19.90;99.90;;;;;;5010872;28;20112;-56
2023/06/25 05:48:53;;;;;;;14.65;11.27;;;20.00;99.90;;;;;;5025387;28;20503;-56
2023/06/25 05:51:18;;;;;;;13.15;10.80;;;20.10;99.90;;;;;;5031461;28;20037;-56
2023/06/25 05:53:45;;;;;;;11.45;10.15;;;20.20;99.90;;;;;;5023841;28;20475;-56
2023/06/25 05:56:11;;;;;;;12.30;9.77;;;20.30;99.90;;;;;;5023021;28;20045;-56
2023/06/25 05:58:37;;;;;;;14.13;10.77;;;20.40;99.90;;;;;;5025269;28;20037;-56
2023/06/25 06:01:04;;;;;;;13.32;10.13;;;20.50;99.90;;;;;;5032028;28;20123;-56
2023/06/25 06:03:29;;;;;;;11.25;10.10;;;20.50;99.90;;;;;;5027698;28;20111;-55
2023/06/25 06:05:57;;;;;;;12.43;9.15;;;20.60;99.90;;;;;;5009731;28;20440;-56
2023/06/25 06:08:23;;;;;;;12.65;9.95;;;20.70;99.90;;;;;;5027867;28;20079;-56
2023/06/25 06:10:48;;;;;;;13.68;10.55;;;20.80;99.90;;;;;;5019808;28;20045;-56
2023/06/25 06:13:15;;;;;;;13.07;10.52;;;20.90;99.90;;;;;;5009958;28;20049;-57
2023/06/25 06:15:40;;;;;;;14.40;10.05;;;21.00;99.90;;;;;;4995379;28;20025;-56
2023/06/25 06:18:06;;;;;;;12.68;10.43;;;21.00;99.90;;;;;;5012486;28;20067;-56
2023/06/25 06:20:32;;;;;;;10.68;9.55;;;21.10;99.90;;;;;;5042988;28;20068;-56
2023/06/25 06:22:58;;;;;;;13.05;9.98;;;21.20;99.90;;;;;;4997700;28;20551;-55
2023/06/25 06:25:25;;;;;;;12.43;10.60;;;21.20;99.90;;;;;;5020086;28;20370;-54
2023/06/25 06:27:52;;;;;;;11.18;8.98;;;21.30;99.90;;;;;;4997592;28;20052;-56
2023/06/25 06:30:18;;;;;;;9.95;8.73;;;21.40;99.90;;;;;;5001241;28;20091;-56
2023/06/25 06:32:43;;;;;;;14.63;10.20;;;21.50;99.90;;;;;;5027578;28;20423;-55
2023/06/25 06:35:10;;;;;;;14.15;10.07;;;21.60;99.90;;;;;;5034521;28;20044;-56
2023/06/25 06:37:35;;;;;;;14.60;9.68;;;21.80;99.90;;;;;;5030044;28;20364;-57
2023/06/25 06:40:02;;;;;;;13.68;9.75;;;21.90;99.90;;;;;;5022325;28;20041;-56
2023/06/25 06:42:28;;;;;;;12.45;9.25;;;21.90;99.90;;;;;;5043170;28;20051;-57
2023/06/25 06:44:53;;;;;;;11.77;9.02;;;22.00;99.90;;;;;;5007775;28;20040;-55
2023/06/25 06:47:19;;;;;;;16.17;10.43;;;22.10;99.90;;;;;;5023637;28;20041;-56
2023/06/25 06:49:46;;;;;;;15.30;9.23;;;22.20;99.90;;;;;;5007106;28;20083;-54
2023/06/25 06:52:13;;;;;;;11.23;10.13;;;22.30;99.90;;;;;;5023233;28;20048;-54
2023/06/25 06:54:39;;;;;;;10.13;8.65;;;22.30;99.90;;;;;;5025727;28;20083;-55
2023/06/25 06:57:05;;;;;;;11.75;8.93;;;22.40;99.90;;;;;;5021852;28;20076;-55
2023/06/25 06:59:30;;;;;;;10.65;9.18;;;22.50;99.90;;;;;;4981554;28;20033;-56
2023/06/25 07:01:56;;;;;;;12.70;9.07;;;22.60;99.90;;;;;;5021504;28;20044;-56
2023/06/25 07:04:22;;;;;;;10.63;9.38;;;22.70;99.90;;;;;;5016910;28;20041;-57
2023/06/25 07:06:48;;;;;;;12.57;9.15;;;22.80;99.90;;;;;;5035162;28;20554;-57
2023/06/25 07:09:13;;;;;;;12.15;10.55;;;22.90;99.90;;;;;;5018203;28;20131;-56
2023/06/25 07:11:39;;;;;;;12.07;8.07;;;23.00;99.90;;;;;;5021641;28;20163;-56
2023/06/25 07:14:05;;;;;;;11.48;10.27;;;23.10;99.90;;;;;;5021616;28;20033;-54
2023/06/25 07:16:31;;;;;;;11.18;10.07;;;23.20;99.90;;;;;;5015335;28;20037;-55
2023/06/25 07:18:56;;;;;;;9.20;8.25;;;23.30;99.90;;;;;;5018631;28;20049;-57
2023/06/25 07:21:22;;;;;;;13.98;9.98;;;23.50;99.90;;;;;;4988216;28;20136;-57
2023/06/25 07:23:48;;;;;;;10.40;9.10;;;23.60;99.90;;;;;;5023337;28;20051;-56
2023/06/25 07:26:13;;;;;;;10.75;9.52;;;23.70;99.90;;;;;;5018862;28;20049;-56
2023/06/25 07:28:39;;;;;;;11.60;9.95;;;23.80;99.90;;;;;;5004810;28;20051;-55
2023/06/25 07:31:05;;;;;;;10.65;9.55;;;24.00;99.90;;;;;;5020016;28;20095;-55
2023/06/25 07:33:30;;;;;;;11.18;9.95;;;24.00;99.90;;;;;;5023904;28;20041;-55
2023/06/25 07:35:56;;;;;;;9.52;8.63;;;24.10;99.90;;;;;;5019586;28;20072;-55
2023/06/25 07:38:22;;;;;;;14.30;10.00;;;24.20;99.90;;;;;;5009503;28;20033;-56
2023/06/25 07:40:47;;;;;;;11.13;9.85;;;24.30;99.90;;;;;;5017845;28;20090;-55
2023/06/25 07:43:13;;;;;;;11.52;10.32;;;24.40;99.90;;;;;;5018710;28;20048;-55
2023/06/25 07:45:39;;;;;;;11.15;10.05;;;24.50;99.90;;;;;;5006025;28;20075;-55
2023/06/25 07:48:05;;;;;;;13.30;9.77;;;24.50;99.90;;;;;;4989590;28;20064;-53
2023/06/25 07:50:31;;;;;;;12.10;10.13;;;24.60;99.90;;;;;;5012961;28;20045;-56
2023/06/25 07:52:56;;;;;;;11.30;10.20;;;24.70;99.90;;;;;;5021505;28;20500;-56
2023/06/25 07:55:24;;;;;;;11.95;10.82;;;24.80;99.80;;;;;;5010896;28;20128;-56
2023/06/25 07:57:50;;;;;;;12.02;10.80;;;24.90;99.60;;;;;;5017507;28;20033;-57
2023/06/25 08:00:16;;;;;;;11.75;10.65;;;25.00;99.20;;;;;;5021490;28;20573;-56
2023/06/25 08:02:42;;;;;;;11.27;10.10;;;25.10;99.00;;;;;;5025045;28;20044;-57
2023/06/25 08:05:08;;;;;;;12.57;10.73;;;25.20;98.90;;;;;;5018085;28;20503;-54
2023/06/25 08:07:33;;;;;;;11.77;10.27;;;25.30;98.90;;;;;;5006597;28;20038;-55
2023/06/25 08:09:59;;;;;;;11.60;10.50;;;25.40;98.70;;;;;;5023858;28;20439;-55
2023/06/25 08:12:25;;;;;;;11.02;9.95;;;25.50;98.30;;;;;;5030511;28;20033;-56
2023/06/25 08:14:50;;;;;;;11.35;10.05;;;25.50;98.20;;;;;;5006669;28;20482;-57
2023/06/25 08:17:16;;;;;;;11.90;10.70;;;25.70;98.20;;;;;;5021687;28;20088;-54
2023/06/25 08:19:42;;;;;;;10.70;9.60;;;25.70;97.80;;;;;;5014039;28;20037;-57
2023/06/25 08:22:07;;;;;;;10.07;9.07;;;25.90;97.90;;;;;;5022789;28;20042;-56
2023/06/25 08:24:33;;;;;;;10.55;9.55;;;26.00;97.80;;;;;;5008807;28;20056;-55
2023/06/25 08:26:59;;;;;;;11.15;9.35;;;26.10;97.50;;;;;;5028576;28;20033;-56
2023/06/25 08:29:25;;;;;;;9.27;8.32;;;26.20;97.60;;;;;;5023237;28;20565;-55
2023/06/25 08:31:50;;;;;;;10.80;9.15;;;26.30;97.40;;;;;;5018448;28;20426;-56
2023/06/25 08:34:16;;;;;;;9.50;8.25;;;26.40;97.20;;;;;;5006679;28;20036;-56
2023/06/25 08:36:41;;;;;;;9.73;8.10;;;26.60;97.00;;;;;;5027759;28;20041;-57
2023/06/25 08:39:07;;;;;;;10.30;8.50;;;26.60;96.80;;;;;;5025756;28;20052;-57
2023/06/25 08:41:34;;;;;;;8.30;7.50;;;26.80;96.50;;;;;;4993588;28;20178;-56
2023/06/25 08:44:01;;;;;;;8.48;7.57;;;26.80;96.30;;;;;;5014680;28;20411;-56
2023/06/25 08:46:27;;;;;;;8.05;6.05;;;26.90;95.80;;;;;;5008343;28;20044;-56
2023/06/25 08:48:54;;;;;;;8.30;7.22;;;27.00;95.50;;;;;;5026949;28;20068;-57
2023/06/25 08:51:23;;;;;;;8.05;6.72;;;27.10;95.50;;;;;;5008469;28;20049;-56
2023/06/25 08:53:49;;;;;;;8.20;7.00;;;27.20;95.20;;;;;;5029249;28;20091;-56
2023/06/25 08:56:19;;;;;;;8.23;7.00;;;27.30;94.90;;;;;;5029565;28;20526;-56
2023/06/25 08:58:45;;;;;;;7.25;6.05;;;27.30;94.70;;;;;;5025421;28;20029;-57
2023/06/25 09:01:13;;;;;;;7.03;6.28;;;27.50;95.10;;;;;;5030899;28;20511;-58
2023/06/25 09:03:42;;;;;;;7.43;6.70;;;27.60;94.40;;;;;;5035017;28;20101;-55
2023/06/25 09:06:14;;;;;;;8.80;6.75;;;27.70;93.80;;;;;;5023231;28;20121;-56
2023/06/25 09:08:41;;;;;;;7.50;6.20;;;27.60;93.30;;;;;;5016715;28;20060;-56
2023/06/25 09:11:07;;;;;;;7.53;5.93;;;27.70;93.10;;;;;;5008103;28;20098;-57
2023/06/25 09:13:32;;;;;;;7.88;7.07;;;27.80;93.10;;;;;;5031198;28;20040;-57
2023/06/25 09:16:04;;;;;;;7.28;5.60;;;27.80;92.90;;;;;;5024920;28;20439;-56
2023/06/25 09:18:30;;;;;;;6.05;5.10;;;27.90;92.90;;;;;;5036590;28;20045;-57
2023/06/25 09:21:00;;;;;;;6.93;5.22;;;28.00;92.80;;;;;;5002383;28;20115;-60
2023/06/25 09:23:26;;;;;;;7.25;5.70;;;28.10;92.50;;;;;;4964365;28;1130223;-58
2023/06/25 09:25:52;;;;;;;5.78;5.07;;;28.10;91.90;;;;;;5029807;28;20114;-57
2023/06/25 09:28:18;;;;;;;6.38;5.43;;;28.10;91.40;;;;;;5027304;28;20262;-56
2023/06/25 09:30:44;;;;;;;7.25;5.70;;;28.20;91.70;;;;;;5009107;28;20090;-57
2023/06/25 09:33:11;;;;;;;5.47;4.93;;;28.30;91.70;;;;;;5007077;28;20072;-57
2023/06/25 09:35:37;;;;;;;7.07;5.68;;;28.50;91.40;;;;;;5026446;28;20531;-59
2023/06/25 09:38:03;;;;;;;5.22;4.70;;;28.60;90.90;;;;;;5055868;23;20036;-62
2023/06/25 09:40:29;;;;;;;5.28;4.78;;;28.70;91.00;;;;;;5065287;28;20036;-60
2023/06/25 09:42:58;;;;;;;7.80;5.35;;;28.80;90.70;;;;;;5084435;28;20035;-62
2023/06/25 09:45:25;;;;;;;6.97;4.38;;;28.90;90.10;;;;;;5088116;28;20055;-60
2023/06/25 09:47:55;;;;;;;7.40;5.20;;;29.00;90.40;;;;;;5071823;28;20551;-59
2023/06/25 09:50:32;;;;;;;7.15;5.05;;;29.10;90.20;;;;;;5085379;28;20122;-59
2023/06/25 09:53:02;;;;;;;5.43;4.78;;;29.20;89.10;;;;;;5040644;28;20098;-59
2023/06/25 09:55:28;;;;;;;6.93;5.15;;;29.30;89.00;;;;;;5082950;28;20051;-60
2023/06/25 09:57:55;;;;;;;5.55;4.82;;;29.20;88.80;;;;;;5084095;28;20118;-59
2023/06/25 10:00:22;;;;;;;5.47;3.75;;;29.30;88.10;;;;;;5066021;28;20040;-59
2023/06/25 10:02:49;;;;;;;5.25;4.70;;;29.40;88.20;;;;;;5086858;28;20028;-59
2023/06/25 10:05:15;;;;;;;6.43;5.07;;;29.60;88.10;;;;;;5087959;28;20048;-59
2023/06/25 10:07:43;;;;;;;5.28;4.78;;;29.60;86.00;;;;;;5067316;28;20120;-59
2023/06/25 10:10:20;;;;;;;6.32;4.47;;;29.70;85.70;;;;;;5087651;28;20028;-61
2023/06/25 10:12:48;;;;;;;7.03;4.40;;;29.70;85.30;;;;;;5087559;28;20048;-60
2023/06/25 10:15:13;;;;;;;6.65;4.65;;;29.80;85.30;;;;;;5045641;28;20041;-58
2023/06/25 10:17:50;;;;;;;5.05;4.30;;;29.80;84.40;;;;;;5077258;28;20032;-60
2023/06/25 10:20:35;;;;;;;6.15;4.10;;;29.90;84.30;;;;;;5080470;28;20111;-61
2023/06/25 10:23:07;;;;;;;6.45;4.03;;;29.90;83.20;;;;;;5080940;28;20044;-59
2023/06/25 10:25:35;;;;;;;6.40;4.30;;;30.00;83.90;;;;;;5072273;28;20044;-61
2023/06/25 10:28:13;;;;;;;6.10;4.35;;;30.10;82.00;;;;;;5041055;28;20076;-61
2023/06/25 10:30:48;;;;;;;5.63;4.35;;;30.10;83.20;;;;;;5079701;28;20044;-60
2023/06/25 10:33:18;;;;;;;6.97;4.30;;;30.20;83.70;;;;;;5076198;28;20387;-60
2023/06/25 10:35:47;;;;;;;4.82;4.22;;;30.30;84.10;;;;;;5044883;28;20436;-60
2023/06/25 10:38:13;;;;;;;5.60;4.47;;;30.50;83.60;;;;;;5063686;28;20047;-60
2023/06/25 10:40:40;;;;;;;6.63;4.45;;;30.60;82.40;;;;;;5087965;28;20119;-60
2023/06/25 10:43:06;;;;;;;5.93;4.38;;;30.60;81.10;;;;;;5062823;28;20115;-61
2023/06/25 10:45:33;;;;;;;7.10;4.35;;;30.60;81.30;;;;;;5060803;28;20043;-61
2023/06/25 10:48:07;;;;;;;5.80;4.15;;;30.70;81.20;;;;;;5052797;28;20040;-60
2023/06/25 10:50:34;;;;;;;5.03;4.38;;;30.70;80.40;;;;;;5076017;28;20111;-60
2023/06/25 10:53:01;;;;;;;6.25;5.20;;;30.70;80.30;;;;;;5078751;28;20032;-61
2023/06/25 10:55:27;;;;;;;5.65;4.30;;;30.60;79.20;;;;;;5069615;28;20036;-60
2023/06/25 10:57:54;;;;;;;6.35;4.30;;;30.60;80.30;;;;;;5075169;28;20047;-61
2023/06/25 11:00:25;;;;;;;4.50;4.00;;;30.80;79.10;;;;;;5067989;28;20052;-60
2023/06/25 11:02:54;;;;;;;4.75;3.95;;;31.00;79.00;;;;;;5078588;28;20106;-61
2023/06/25 11:05:30;;;;;;;5.18;3.97;;;31.00;78.60;;;;;;5065143;28;20047;-60
2023/06/25 11:07:56;;;;;;;5.60;3.85;;;31.10;78.10;;;;;;5086836;28;20096;-59
2023/06/25 11:10:25;;;;;;;4.38;3.45;;;31.10;77.10;;;;;;5063101;28;20036;-60
2023/06/25 11:12:51;;;;;;;4.70;3.75;;;31.20;77.10;;;;;;5076391;28;20028;-60
2023/06/25 11:15:18;;;;;;;4.45;3.72;;;31.20;76.80;;;;;;5086467;28;20451;-60
2023/06/25 11:17:54;;;;;;;6.05;4.30;;;31.30;77.40;;;;;;5075394;28;20024;-60
2023/06/25 11:20:23;;;;;;;5.00;4.35;;;31.40;76.50;;;;;;5067679;28;20036;-60
2023/06/25 11:22:49;;;;;;;5.75;4.03;;;31.50;76.10;;;;;;5057568;28;20044;-60
2023/06/25 11:25:16;;;;;;;4.25;3.65;;;31.50;76.20;;;;;;5080600;28;20093;-59
2023/06/25 11:27:42;;;;;;;5.35;4.07;;;31.60;76.40;;;;;;5078540;28;20053;-60
2023/06/25 11:30:09;;;;;;;6.10;3.78;;;31.70;76.70;;;;;;5067291;28;20044;-60
2023/06/25 11:32:37;;;;;;;5.03;3.90;;;31.90;75.30;;;;;;5085043;28;20043;-60
2023/06/25 11:35:16;;;;;;;5.43;4.07;;;32.00;73.90;;;;;;5068754;28;20517;-61
2023/06/25 11:37:49;;;;;;;4.65;4.15;;;32.00;72.60;;;;;;5078478;28;20032;-59
2023/06/25 11:40:25;;;;;;;6.32;4.07;;;32.00;71.50;;;;;;5080900;28;20040;-60
2023/06/25 11:42:52;;;;;;;4.53;3.90;;;32.00;71.70;;;;;;5062333;28;20048;-60
2023/06/25 11:45:19;;;;;;;8.27;3.83;;;31.90;70.60;;;;;;5058499;28;20097;-60
2023/06/25 11:47:50;;;;;;;4.60;3.75;;;31.90;69.50;;;;;;5046592;28;20486;-60
2023/06/25 11:50:20;;;;;;;4.28;3.50;;;32.00;69.30;;;;;;5071651;28;20055;-60
2023/06/25 11:52:46;;;;;;;4.75;3.72;;;32.10;70.30;;;;;;5079035;28;20404;-61
2023/06/25 11:55:11;;;;;;;5.10;4.28;;;32.30;69.80;;;;;;5078951;28;20044;-60
2023/06/25 11:57:39;;;;;;;4.53;3.90;;;32.30;68.00;;;;;;5046839;28;20039;-60
2023/06/25 12:00:05;;;;;;;5.35;4.15;;;32.40;68.50;;;;;;5066698;28;20375;-61
2023/06/25 12:02:31;;;;;;;5.25;4.60;;;32.50;68.50;;;;;;5049450;28;20058;-59
2023/06/25 12:04:57;;;;;;;8.40;4.05;;;32.50;67.80;;;;;;5063110;28;20055;-61
2023/06/25 12:07:22;;;;;;;4.30;3.72;;;32.50;67.50;;;;;;5083461;28;20063;-61
2023/06/25 12:09:48;;;;;;;4.50;4.05;;;32.40;67.70;;;;;;5065521;28;20418;-60
2023/06/25 12:12:14;;;;;;;5.35;3.80;;;32.50;67.80;;;;;;5066012;28;20051;-61
2023/06/25 12:14:40;;;;;;;4.60;4.18;;;32.60;67.90;;;;;;5068168;28;20066;-59
2023/06/25 12:17:05;;;;;;;7.72;4.30;;;32.70;67.30;;;;;;5073129;28;20036;-61
2023/06/25 12:19:31;;;;;;;5.47;3.90;;;32.80;67.80;;;;;;5067889;28;20044;-60
2023/06/25 12:21:58;;;;;;;4.75;3.83;;;33.00;68.10;;;;;;5044464;28;20039;-60
2023/06/25 12:24:24;;;;;;;5.38;3.95;;;33.10;66.60;;;;;;5064606;28;20049;-60
2023/06/25 12:26:50;;;;;;;6.90;4.13;;;33.10;65.70;;;;;;5097722;28;20577;-61
2023/06/25 12:29:16;;;;;;;6.47;4.18;;;33.20;65.30;;;;;;5072230;28;20131;-60
2023/06/25 12:31:42;;;;;;;6.07;4.50;;;33.20;64.80;;;;;;5080827;28;20115;-61
2023/06/25 12:34:07;;;;;;;5.18;4.38;;;33.30;64.20;;;;;;5070114;28;20097;-60